createdAt,value
2018-09-08T00:00:21.595Z,1009.33
2018-09-08T00:01:22.976Z,1009.39
2018-09-08T00:02:25.484Z,1009.36
2018-09-08T00:03:28.684Z,1009.37
2018-09-08T00:04:30.675Z,1009.36
2018-09-08T00:05:33.095Z,1009.37
2018-09-08T00:06:34.469Z,1009.35
2018-09-08T00:07:35.809Z,1009.37
2018-09-08T00:08:38.840Z,1009.39
2018-09-08T00:09:41.306Z,1009.41
2018-09-08T00:10:42.994Z,1009.39
2018-09-08T00:11:45.745Z,1009.37
2018-09-08T00:12:48.926Z,1009.41
2018-09-08T00:13:50.621Z,1009.42
2018-09-08T00:14:53.007Z,1009.42
2018-09-08T00:15:54.868Z,1009.44
2018-09-08T00:16:57.423Z,1009.48
2018-09-08T00:18:00.924Z,1009.47
2018-09-08T00:19:03.439Z,1009.45
2018-09-08T00:20:04.814Z,1009.44
2018-09-08T00:21:06.197Z,1009.52
2018-09-08T00:22:07.584Z,1009.49
2018-09-08T00:23:09.038Z,1009.55
2018-09-08T00:24:10.397Z,1009.52
2018-09-08T00:25:11.768Z,1009.56
2018-09-08T00:26:13.157Z,1009.57
2018-09-08T00:27:17.537Z,1009.57
2018-09-08T00:28:18.903Z,1009.57
2018-09-08T00:29:22.058Z,1009.60
2018-09-08T00:30:24.226Z,1009.60
2018-09-08T00:31:26.298Z,1009.61
2018-09-08T00:32:28.986Z,1009.64
2018-09-08T00:33:30.371Z,1009.63
2018-09-08T00:34:33.162Z,1009.63
2018-09-08T00:35:35.657Z,1009.62
2018-09-08T00:36:38.665Z,1009.65
2018-09-08T00:37:40.604Z,1009.64
2018-09-08T00:38:41.985Z,1009.65
2018-09-08T00:39:43.380Z,1009.62
2018-09-08T00:40:45.459Z,1009.60
2018-09-08T00:41:46.876Z,1009.61
2018-09-08T00:42:49.512Z,1009.64
2018-09-08T00:43:52.581Z,1009.63
2018-09-08T00:44:53.964Z,1009.62
2018-09-08T00:45:55.365Z,1009.65
2018-09-08T00:46:57.232Z,1009.68
2018-09-08T00:47:59.026Z,1009.67
2018-09-08T00:49:00.931Z,1009.72
2018-09-08T00:50:02.357Z,1009.69
2018-09-08T00:51:04.609Z,1009.70
2018-09-08T00:52:07.137Z,1009.70
2018-09-08T00:53:08.471Z,1009.72
2018-09-08T00:54:11.623Z,1009.72
2018-09-08T00:55:13.077Z,1009.74
2018-09-08T00:56:14.537Z,1009.76
2018-09-08T00:57:17.165Z,1009.78
2018-09-08T00:58:19.876Z,1009.80
2018-09-08T00:59:21.256Z,1009.78
2018-09-08T01:00:23.703Z,1009.79
2018-09-08T01:01:25.086Z,1009.78
2018-09-08T01:02:26.757Z,1009.74
2018-09-08T01:03:28.358Z,1009.71
2018-09-08T01:04:31.451Z,1009.76
2018-09-08T01:05:33.400Z,1009.74
2018-09-08T01:06:34.763Z,1009.77
2018-09-08T01:07:37.754Z,1009.70
2018-09-08T01:08:39.148Z,1009.79
2018-09-08T01:09:41.036Z,1009.79
2018-09-08T01:10:42.422Z,1009.79
2018-09-08T01:11:43.810Z,1009.78
2018-09-08T01:12:45.876Z,1009.80
2018-09-08T01:13:47.714Z,1009.79
2018-09-08T01:14:50.023Z,1009.79
2018-09-08T01:15:51.753Z,1009.82
2018-09-08T01:16:53.137Z,1009.83
2018-09-08T01:17:54.516Z,1009.79
2018-09-08T01:18:55.904Z,1009.82
2018-09-08T01:19:57.388Z,1009.82
2018-09-08T01:20:58.772Z,1009.78
2018-09-08T01:22:00.292Z,1009.86
2018-09-08T01:23:01.668Z,1009.78
2018-09-08T01:24:03.050Z,1009.87
2018-09-08T01:25:04.441Z,1009.82
2018-09-08T01:26:06.684Z,1009.85
2018-09-08T01:27:10.053Z,1009.83
2018-09-08T01:28:11.435Z,1009.87
2018-09-08T01:29:12.813Z,1009.90
2018-09-08T01:30:15.643Z,1009.90
2018-09-08T01:31:18.993Z,1009.92
2018-09-08T01:32:20.480Z,1009.92
2018-09-08T01:33:22.075Z,1009.90
2018-09-08T01:34:24.775Z,1009.94
2018-09-08T01:35:27.534Z,1009.93
2018-09-08T01:36:28.907Z,1009.94
2018-09-08T01:37:31.834Z,1009.93
2018-09-08T01:38:33.223Z,1009.95
2018-09-08T01:39:36.501Z,1009.99
2018-09-08T01:40:38.823Z,1009.98
2018-09-08T01:41:41.205Z,1010.00
2018-09-08T01:42:44.693Z,1009.98
2018-09-08T01:43:46.515Z,1009.97
2018-09-08T01:44:47.964Z,1009.94
2018-09-08T01:45:49.988Z,1009.93
2018-09-08T01:46:51.624Z,1009.95
2018-09-08T01:47:52.966Z,1009.96
2018-09-08T01:48:55.766Z,1009.94
2018-09-08T01:49:57.406Z,1009.95
2018-09-08T01:50:58.783Z,1009.96
2018-09-08T01:52:00.165Z,1009.99
2018-09-08T01:53:01.695Z,1010.00
2018-09-08T01:54:03.073Z,1009.98
2018-09-08T01:55:04.750Z,1009.99
2018-09-08T01:56:06.390Z,1009.98
2018-09-08T01:57:07.816Z,1010.01
2018-09-08T01:58:09.379Z,1009.99
2018-09-08T01:59:10.887Z,1010.01
2018-09-08T02:00:12.271Z,1010.01
2018-09-08T02:01:13.693Z,1009.99
2018-09-08T02:02:15.076Z,1010.01
2018-09-08T02:03:16.621Z,1010.02
2018-09-08T02:04:18.174Z,1010.02
2018-09-08T02:05:19.588Z,1010.01
2018-09-08T02:06:21.046Z,1010.03
2018-09-08T02:07:22.438Z,1010.03
2018-09-08T02:08:23.810Z,1010.01
2018-09-08T02:09:25.191Z,1010.06
2018-09-08T02:10:26.580Z,1010.09
2018-09-08T02:11:28.178Z,1010.07
2018-09-08T02:12:29.688Z,1010.09
2018-09-08T02:13:31.072Z,1010.08
2018-09-08T02:14:32.629Z,1010.04
2018-09-08T02:15:34.048Z,1010.07
2018-09-08T02:16:35.634Z,1010.06
2018-09-08T02:17:37.107Z,1010.04
2018-09-08T02:18:38.519Z,1010.04
2018-09-08T02:19:39.910Z,1010.06
2018-09-08T02:20:41.312Z,1010.05
2018-09-08T02:21:42.719Z,1010.03
2018-09-08T02:22:44.259Z,1010.06
2018-09-08T02:23:45.826Z,1010.06
2018-09-08T02:24:47.212Z,1010.04
2018-09-08T02:25:48.584Z,1010.03
2018-09-08T02:26:50.125Z,1010.05
2018-09-08T02:27:51.531Z,1010.10
2018-09-08T02:28:53.148Z,1010.04
2018-09-08T02:29:54.534Z,1010.10
2018-09-08T02:30:56.109Z,1010.09
2018-09-08T02:31:57.512Z,1010.10
2018-09-08T02:32:58.892Z,1010.11
2018-09-08T02:34:00.282Z,1010.11
2018-09-08T02:35:02.485Z,1010.12
2018-09-08T02:36:03.856Z,1010.06
2018-09-08T02:37:05.249Z,1010.09
2018-09-08T02:38:07.629Z,1010.10
2018-09-08T02:39:09.006Z,1010.12
2018-09-08T02:40:10.835Z,1010.09
2018-09-08T02:41:12.843Z,1010.09
2018-09-08T02:42:14.228Z,1010.12
2018-09-08T02:43:16.225Z,1010.11
2018-09-08T02:44:18.546Z,1010.17
2018-09-08T02:45:20.666Z,1010.13
2018-09-08T02:46:23.497Z,1010.17
2018-09-08T02:47:26.640Z,1010.16
2018-09-08T02:48:30.037Z,1010.14
2018-09-08T02:49:32.154Z,1010.15
2018-09-08T02:50:34.502Z,1010.12
2018-09-08T02:51:36.847Z,1010.17
2018-09-08T02:52:39.221Z,1010.18
2018-09-08T02:53:40.628Z,1010.14
2018-09-08T02:54:44.026Z,1010.15
2018-09-08T02:55:46.055Z,1010.17
2018-09-08T02:56:49.219Z,1010.18
2018-09-08T02:57:51.530Z,1010.17
2018-09-08T02:58:52.928Z,1010.17
2018-09-08T02:59:54.375Z,1010.17
2018-09-08T03:00:56.264Z,1010.16
2018-09-08T03:01:58.717Z,1010.17
2018-09-08T03:03:00.875Z,1010.18
2018-09-08T03:04:02.252Z,1010.17
2018-09-08T03:05:03.632Z,1010.16
2018-09-08T03:06:05.388Z,1010.16
2018-09-08T03:07:06.763Z,1010.19
2018-09-08T03:08:08.956Z,1010.19
2018-09-08T03:09:10.350Z,1010.22
2018-09-08T03:10:12.649Z,1010.19
2018-09-08T03:11:14.387Z,1010.25
2018-09-08T03:12:16.108Z,1010.23
2018-09-08T03:13:19.197Z,1010.22
2018-09-08T03:14:20.937Z,1010.23
2018-09-08T03:15:22.314Z,1010.27
2018-09-08T03:16:23.694Z,1010.26
2018-09-08T03:17:25.068Z,1010.30
2018-09-08T03:18:26.465Z,1010.32
2018-09-08T03:19:27.840Z,1010.34
2018-09-08T03:20:29.217Z,1010.34
2018-09-08T03:21:30.612Z,1010.30
2018-09-08T03:22:31.986Z,1010.34
2018-09-08T03:23:33.376Z,1010.32
2018-09-08T03:24:34.755Z,1010.30
2018-09-08T03:25:36.147Z,1010.29
2018-09-08T03:26:37.528Z,1010.28
2018-09-08T03:27:38.907Z,1010.29
2018-09-08T03:28:40.293Z,1010.27
2018-09-08T03:29:41.666Z,1010.26
2018-09-08T03:30:43.043Z,1010.30
2018-09-08T03:31:44.420Z,1010.28
2018-09-08T03:32:45.801Z,1010.30
2018-09-08T03:33:47.183Z,1010.31
2018-09-08T03:34:48.569Z,1010.30
2018-09-08T03:35:49.944Z,1010.28
2018-09-08T03:36:51.320Z,1010.25
2018-09-08T03:37:52.712Z,1010.31
2018-09-08T03:38:54.084Z,1010.32
2018-09-08T03:39:55.466Z,1010.33
2018-09-08T03:40:56.840Z,1010.29
2018-09-08T03:41:58.223Z,1010.29
2018-09-08T03:42:59.604Z,1010.26
2018-09-08T03:44:00.981Z,1010.26
2018-09-08T03:45:02.353Z,1010.29
2018-09-08T03:46:03.743Z,1010.34
2018-09-08T03:47:05.128Z,1010.27
2018-09-08T03:48:06.507Z,1010.33
2018-09-08T03:49:07.904Z,1010.33
2018-09-08T03:50:09.278Z,1010.29
2018-09-08T03:51:10.651Z,1010.34
2018-09-08T03:52:12.033Z,1010.34
2018-09-08T03:53:13.418Z,1010.33
2018-09-08T03:54:14.799Z,1010.33
2018-09-08T03:55:16.173Z,1010.34
2018-09-08T03:56:17.552Z,1010.36
2018-09-08T03:57:18.927Z,1010.37
2018-09-08T03:58:20.317Z,1010.38
2018-09-08T03:59:21.698Z,1010.37
2018-09-08T04:00:23.076Z,1010.34
2018-09-08T04:01:24.459Z,1010.34
2018-09-08T04:02:25.845Z,1010.32
2018-09-08T04:03:27.227Z,1010.33
2018-09-08T04:04:28.602Z,1010.31
2018-09-08T04:05:30.003Z,1010.29
2018-09-08T04:06:31.366Z,1010.33
2018-09-08T04:07:32.752Z,1010.31
2018-09-08T04:08:34.128Z,1010.27
2018-09-08T04:09:35.514Z,1010.26
2018-09-08T04:10:36.894Z,1010.34
2018-09-08T04:11:38.270Z,1010.34
2018-09-08T04:12:39.651Z,1010.40
2018-09-08T04:13:41.021Z,1010.41
2018-09-08T04:14:42.407Z,1010.46
2018-09-08T04:15:43.786Z,1010.55
2018-09-08T04:16:45.165Z,1010.51
2018-09-08T04:17:46.543Z,1010.52
2018-09-08T04:18:47.932Z,1010.55
2018-09-08T04:19:49.315Z,1010.57
2018-09-08T04:20:50.692Z,1010.60
2018-09-08T04:21:52.066Z,1010.57
2018-09-08T04:22:53.451Z,1010.59
2018-09-08T04:23:54.850Z,1010.62
2018-09-08T04:24:56.170Z,1010.63
2018-09-08T04:25:57.548Z,1010.60
2018-09-08T04:26:58.936Z,1010.62
2018-09-08T04:28:00.314Z,1010.61
2018-09-08T04:29:01.694Z,1010.63
2018-09-08T04:30:03.078Z,1010.62
2018-09-08T04:31:04.453Z,1010.63
2018-09-08T04:32:05.846Z,1010.63
2018-09-08T04:33:07.222Z,1010.63
2018-09-08T04:34:08.606Z,1010.63
2018-09-08T04:35:09.989Z,1010.69
2018-09-08T04:36:11.374Z,1010.69
2018-09-08T04:37:12.753Z,1010.70
2018-09-08T04:38:14.147Z,1010.73
2018-09-08T04:39:15.520Z,1010.72
2018-09-08T04:40:16.909Z,1010.69
2018-09-08T04:41:18.287Z,1010.75
2018-09-08T04:42:19.673Z,1010.75
2018-09-08T04:43:21.053Z,1010.73
2018-09-08T04:44:22.429Z,1010.73
2018-09-08T04:45:23.818Z,1010.69
2018-09-08T04:46:25.202Z,1010.69
2018-09-08T04:47:26.586Z,1010.69
2018-09-08T04:48:27.965Z,1010.64
2018-09-08T04:49:29.351Z,1010.67
2018-09-08T04:50:30.775Z,1010.64
2018-09-08T04:51:32.122Z,1010.69
2018-09-08T04:52:33.502Z,1010.67
2018-09-08T04:53:34.890Z,1010.71
2018-09-08T04:54:36.278Z,1010.71
2018-09-08T04:55:37.661Z,1010.70
2018-09-08T04:56:39.042Z,1010.75
2018-09-08T04:57:40.430Z,1010.70
2018-09-08T04:58:41.817Z,1010.73
2018-09-08T04:59:43.202Z,1010.72
2018-09-08T05:00:44.587Z,1010.73
2018-09-08T05:01:45.972Z,1010.76
2018-09-08T05:02:47.358Z,1010.78
2018-09-08T05:03:48.734Z,1010.75
2018-09-08T05:04:50.123Z,1010.82
2018-09-08T05:05:51.502Z,1010.84
2018-09-08T05:06:52.878Z,1010.86
2018-09-08T05:07:54.257Z,1010.87
2018-09-08T05:08:55.674Z,1010.87
2018-09-08T05:09:57.033Z,1010.89
2018-09-08T05:10:58.419Z,1010.90
2018-09-08T05:11:59.801Z,1010.91
2018-09-08T05:13:01.189Z,1010.96
2018-09-08T05:14:02.573Z,1010.98
2018-09-08T05:15:03.960Z,1011.02
2018-09-08T05:16:05.337Z,1010.98
2018-09-08T05:17:06.760Z,1010.99
2018-09-08T05:18:08.112Z,1011.00
2018-09-08T05:19:09.487Z,1010.99
2018-09-08T05:20:10.873Z,1010.94
2018-09-08T05:21:12.266Z,1010.93
2018-09-08T05:22:13.642Z,1010.92
2018-09-08T05:23:15.024Z,1010.95
2018-09-08T05:24:16.413Z,1010.93
2018-09-08T05:25:17.801Z,1010.93
2018-09-08T05:26:19.196Z,1010.97
2018-09-08T05:27:20.583Z,1010.94
2018-09-08T05:28:21.967Z,1010.95
2018-09-08T05:29:23.343Z,1010.98
2018-09-08T05:30:24.729Z,1010.92
2018-09-08T05:31:26.106Z,1011.00
2018-09-08T05:32:27.487Z,1010.93
2018-09-08T05:33:28.871Z,1010.98
2018-09-08T05:34:30.296Z,1010.96
2018-09-08T05:35:31.656Z,1010.99
2018-09-08T05:36:33.044Z,1010.96
2018-09-08T05:37:34.427Z,1010.97
2018-09-08T05:38:35.806Z,1010.99
2018-09-08T05:39:37.214Z,1011.01
2018-09-08T05:40:38.602Z,1011.01
2018-09-08T05:41:39.987Z,1010.99
2018-09-08T05:42:41.370Z,1010.99
2018-09-08T05:43:42.752Z,1011.02
2018-09-08T05:44:44.140Z,1011.05
2018-09-08T05:45:45.512Z,1011.02
2018-09-08T05:46:46.898Z,1011.04
2018-09-08T05:47:48.277Z,1011.06
2018-09-08T05:48:49.717Z,1011.08
2018-09-08T05:49:51.054Z,1011.11
2018-09-08T05:50:52.448Z,1011.07
2018-09-08T05:51:53.824Z,1011.12
2018-09-08T05:52:55.208Z,1011.08
2018-09-08T05:53:56.582Z,1011.09
2018-09-08T05:54:57.973Z,1011.11
2018-09-08T05:55:59.355Z,1011.12
2018-09-08T05:57:00.737Z,1011.11
2018-09-08T05:58:02.130Z,1011.15
2018-09-08T05:59:03.511Z,1011.11
2018-09-08T06:00:04.890Z,1011.15
2018-09-08T06:01:06.274Z,1011.13
2018-09-08T06:02:07.659Z,1011.13
2018-09-08T06:03:09.039Z,1011.14
2018-09-08T06:04:10.426Z,1011.15
2018-09-08T06:05:11.813Z,1011.15
2018-09-08T06:06:13.187Z,1011.19
2018-09-08T06:07:14.572Z,1011.19
2018-09-08T06:08:15.948Z,1011.21
2018-09-08T06:09:17.333Z,1011.23
2018-09-08T06:10:18.803Z,1011.24
2018-09-08T06:11:20.130Z,1011.26
2018-09-08T06:12:21.493Z,1011.24
2018-09-08T06:13:22.881Z,1011.20
2018-09-08T06:14:24.282Z,1011.20
2018-09-08T06:15:25.669Z,1011.22
2018-09-08T06:16:27.055Z,1011.24
2018-09-08T06:17:28.504Z,1011.22
2018-09-08T06:18:29.837Z,1011.21
2018-09-08T06:19:31.232Z,1011.24
2018-09-08T06:20:32.593Z,1011.23
2018-09-08T06:21:33.980Z,1011.29
2018-09-08T06:22:35.364Z,1011.25
2018-09-08T06:23:36.756Z,1011.31
2018-09-08T06:24:38.196Z,1011.35
2018-09-08T06:25:39.598Z,1011.27
2018-09-08T06:26:40.965Z,1011.35
2018-09-08T06:27:42.367Z,1011.31
2018-09-08T06:28:43.827Z,1011.40
2018-09-08T06:29:45.145Z,1011.38
2018-09-08T06:30:46.577Z,1011.36
2018-09-08T06:31:48.015Z,1011.41
2018-09-08T06:32:49.337Z,1011.41
2018-09-08T06:33:50.786Z,1011.45
2018-09-08T06:34:52.086Z,1011.41
2018-09-08T06:35:53.488Z,1011.40
2018-09-08T06:36:54.886Z,1011.41
2018-09-08T06:37:56.313Z,1011.45
2018-09-08T06:38:57.683Z,1011.42
2018-09-08T06:39:59.063Z,1011.47
2018-09-08T06:41:00.541Z,1011.48
2018-09-08T06:42:01.927Z,1011.39
2018-09-08T06:43:03.317Z,1011.40
2018-09-08T06:44:04.709Z,1011.42
2018-09-08T06:45:06.256Z,1011.43
2018-09-08T06:46:07.501Z,1011.46
2018-09-08T06:47:08.901Z,1011.50
2018-09-08T06:48:10.280Z,1011.49
2018-09-08T06:49:11.670Z,1011.50
2018-09-08T06:50:13.069Z,1011.47
2018-09-08T06:51:14.457Z,1011.52
2018-09-08T06:52:15.905Z,1011.53
2018-09-08T06:53:17.249Z,1011.54
2018-09-08T06:54:18.644Z,1011.56
2018-09-08T06:55:20.044Z,1011.58
2018-09-08T06:56:21.448Z,1011.59
2018-09-08T06:57:22.850Z,1011.62
2018-09-08T06:58:24.231Z,1011.65
2018-09-08T06:59:25.628Z,1011.55
2018-09-08T07:00:27.032Z,1011.54
2018-09-08T07:01:28.454Z,1011.58
2018-09-08T07:02:29.867Z,1011.62
2018-09-08T07:03:31.332Z,1011.63
2018-09-08T07:04:32.655Z,1011.66
2018-09-08T07:05:34.048Z,1011.72
2018-09-08T07:06:35.464Z,1011.70
2018-09-08T07:07:36.867Z,1011.67
2018-09-08T07:08:38.263Z,1011.77
2018-09-08T07:09:39.663Z,1011.76
2018-09-08T07:10:41.059Z,1011.80
2018-09-08T07:11:42.460Z,1011.82
2018-09-08T07:12:43.894Z,1011.88
2018-09-08T07:13:45.298Z,1011.84
2018-09-08T07:14:46.705Z,1011.85
2018-09-08T07:15:48.106Z,1011.78
2018-09-08T07:16:49.507Z,1011.73
2018-09-08T07:17:50.898Z,1011.69
2018-09-08T07:18:52.287Z,1011.71
2018-09-08T07:19:53.695Z,1011.68
2018-09-08T07:20:55.093Z,1011.65
2018-09-08T07:21:56.494Z,1011.70
2018-09-08T07:22:57.891Z,1011.63
2018-09-08T07:23:59.297Z,1011.68
2018-09-08T07:25:00.766Z,1011.67
2018-09-08T07:26:02.049Z,1011.68
2018-09-08T07:27:03.449Z,1011.61
2018-09-08T07:28:04.871Z,1011.72
2018-09-08T07:29:06.271Z,1011.67
2018-09-08T07:30:07.674Z,1011.66
2018-09-08T07:31:09.137Z,1011.62
2018-09-08T07:32:10.433Z,1011.66
2018-09-08T07:33:11.827Z,1011.68
2018-09-08T07:34:13.232Z,1011.61
2018-09-08T07:35:14.633Z,1011.65
2018-09-08T07:36:16.032Z,1011.64
2018-09-08T07:37:17.461Z,1011.68
2018-09-08T07:38:18.854Z,1011.64
2018-09-08T07:39:20.242Z,1011.66
2018-09-08T07:40:21.650Z,1011.59
2018-09-08T07:41:23.044Z,1011.60
2018-09-08T07:42:24.440Z,1011.61
2018-09-08T07:43:25.836Z,1011.57
2018-09-08T07:44:27.234Z,1011.63
2018-09-08T07:45:28.631Z,1011.57
2018-09-08T07:46:30.025Z,1011.65
2018-09-08T07:47:31.417Z,1011.71
2018-09-08T07:48:32.815Z,1011.69
2018-09-08T07:49:34.212Z,1011.67
2018-09-08T07:50:35.612Z,1011.71
2018-09-08T07:51:36.997Z,1011.71
2018-09-08T07:52:38.406Z,1011.77
2018-09-08T07:53:39.917Z,1011.76
2018-09-08T07:54:41.153Z,1011.78
2018-09-08T07:55:42.555Z,1011.83
2018-09-08T07:56:43.949Z,1011.85
2018-09-08T07:57:45.345Z,1011.89
2018-09-08T07:58:46.743Z,1011.91
2018-09-08T07:59:48.133Z,1011.86
2018-09-08T08:00:49.529Z,1011.85
2018-09-08T08:01:50.921Z,1011.90
2018-09-08T08:02:52.308Z,1011.94
2018-09-08T08:03:53.703Z,1011.89
2018-09-08T08:04:55.101Z,1011.88
2018-09-08T08:05:56.497Z,1011.91
2018-09-08T08:06:57.895Z,1011.91
2018-09-08T08:07:59.290Z,1011.89
2018-09-08T08:09:00.681Z,1011.93
2018-09-08T08:10:02.067Z,1011.93
2018-09-08T08:11:03.459Z,1011.97
2018-09-08T08:12:04.845Z,1011.95
2018-09-08T08:13:06.245Z,1011.98
2018-09-08T08:14:07.635Z,1011.98
2018-09-08T08:15:09.030Z,1011.98
2018-09-08T08:16:10.435Z,1012.00
2018-09-08T08:17:11.823Z,1011.94
2018-09-08T08:18:13.220Z,1011.96
2018-09-08T08:19:14.616Z,1012.06
2018-09-08T08:20:16.007Z,1012.02
2018-09-08T08:21:17.396Z,1012.03
2018-09-08T08:22:18.800Z,1012.06
2018-09-08T08:23:20.208Z,1012.04
2018-09-08T08:24:21.582Z,1012.03
2018-09-08T08:25:22.978Z,1012.04
2018-09-08T08:26:24.377Z,1012.02
2018-09-08T08:27:25.782Z,1012.00
2018-09-08T08:28:27.171Z,1012.01
2018-09-08T08:29:28.573Z,1012.03
2018-09-08T08:30:29.961Z,1012.01
2018-09-08T08:31:31.348Z,1012.07
2018-09-08T08:32:32.747Z,1012.06
2018-09-08T08:33:34.139Z,1012.02
2018-09-08T08:34:35.535Z,1012.04
2018-09-08T08:35:36.928Z,1012.01
2018-09-08T08:36:38.326Z,1012.04
2018-09-08T08:37:39.716Z,1012.06
2018-09-08T08:38:41.102Z,1011.99
2018-09-08T08:39:42.500Z,1012.05
2018-09-08T08:40:43.890Z,1012.07
2018-09-08T08:41:45.275Z,1012.09
2018-09-08T08:42:46.671Z,1012.12
2018-09-08T08:43:48.073Z,1011.99
2018-09-08T08:44:49.455Z,1012.11
2018-09-08T08:45:50.887Z,1012.07
2018-09-08T08:46:52.285Z,1012.18
2018-09-08T08:47:53.696Z,1012.01
2018-09-08T08:48:55.104Z,1012.06
2018-09-08T08:49:56.633Z,1012.10
2018-09-08T08:50:57.899Z,1012.16
2018-09-08T08:51:59.292Z,1012.16
2018-09-08T08:53:00.681Z,1012.13
2018-09-08T08:54:02.790Z,1012.12
2018-09-08T08:55:04.184Z,1012.07
2018-09-08T08:56:05.579Z,1012.11
2018-09-08T08:57:06.971Z,1012.03
2018-09-08T08:58:08.461Z,1012.12
2018-09-08T08:59:09.865Z,1012.13
2018-09-08T09:00:11.257Z,1012.08
2018-09-08T09:01:12.660Z,1012.10
2018-09-08T09:02:14.076Z,1012.12
2018-09-08T09:03:15.471Z,1012.03
2018-09-08T09:04:16.869Z,1012.14
2018-09-08T09:05:18.273Z,1011.98
2018-09-08T09:06:19.664Z,1012.05
2018-09-08T09:07:21.082Z,1012.11
2018-09-08T09:08:22.872Z,1011.97
2018-09-08T09:09:23.874Z,1011.98
2018-09-08T09:10:25.266Z,1012.12
2018-09-08T09:11:26.667Z,1012.03
2018-09-08T09:12:28.083Z,1012.14
2018-09-08T09:13:29.571Z,1012.10
2018-09-08T09:14:30.879Z,1012.12
2018-09-08T09:15:32.727Z,1012.14
2018-09-08T09:16:33.667Z,1012.07
2018-09-08T09:17:35.061Z,1012.09
2018-09-08T09:18:36.940Z,1012.17
2018-09-08T09:19:37.857Z,1012.08
2018-09-08T09:20:39.250Z,1012.20
2018-09-08T09:21:40.640Z,1012.17
2018-09-08T09:22:42.041Z,1012.21
2018-09-08T09:23:44.021Z,1012.18
2018-09-08T09:24:45.589Z,1012.13
2018-09-08T09:25:46.808Z,1012.15
2018-09-08T09:26:48.207Z,1012.19
2018-09-08T09:27:49.599Z,1012.17
2018-09-08T09:28:50.999Z,1012.07
2018-09-08T09:29:52.386Z,1012.17
2018-09-08T09:30:53.785Z,1012.21
2018-09-08T09:31:55.166Z,1012.15
2018-09-08T09:32:56.562Z,1012.12
2018-09-08T09:33:57.947Z,1012.23
2018-09-08T09:34:59.342Z,1012.21
2018-09-08T09:36:00.731Z,1012.20
2018-09-08T09:37:02.136Z,1012.17
2018-09-08T09:38:03.527Z,1012.16
2018-09-08T09:39:04.920Z,1012.16
2018-09-08T09:40:06.315Z,1012.17
2018-09-08T09:41:07.708Z,1012.10
2018-09-08T09:42:09.094Z,1012.15
2018-09-08T09:43:10.490Z,1012.12
2018-09-08T09:44:11.936Z,1012.09
2018-09-08T09:45:13.240Z,1012.10
2018-09-08T09:46:14.635Z,1012.09
2018-09-08T09:47:16.033Z,1012.12
2018-09-08T09:48:17.425Z,1012.14
2018-09-08T09:49:18.822Z,1012.17
2018-09-08T09:50:20.213Z,1012.15
2018-09-08T09:51:21.619Z,1012.08
2018-09-08T09:52:23.008Z,1012.13
2018-09-08T09:53:24.395Z,1012.19
2018-09-08T09:54:25.789Z,1012.19
2018-09-08T09:55:27.155Z,1012.19
2018-09-08T09:56:28.548Z,1012.22
2018-09-08T09:57:29.949Z,1012.17
2018-09-08T09:58:31.346Z,1012.11
2018-09-08T09:59:32.749Z,1012.15
2018-09-08T10:00:34.283Z,1012.15
2018-09-08T10:01:35.668Z,1012.18
2018-09-08T10:02:37.044Z,1012.09
2018-09-08T10:03:38.446Z,1012.10
2018-09-08T10:04:39.858Z,1012.18
2018-09-08T10:05:41.290Z,1012.19
2018-09-08T10:06:42.696Z,1012.19
2018-09-08T10:07:44.096Z,1012.27
2018-09-08T10:08:45.482Z,1012.25
2018-09-08T10:09:46.881Z,1012.15
2018-09-08T10:10:48.276Z,1012.21
2018-09-08T10:11:49.672Z,1012.20
2018-09-08T10:12:51.078Z,1012.17
2018-09-08T10:13:52.474Z,1012.23
2018-09-08T10:14:53.894Z,1012.24
2018-09-08T10:15:55.290Z,1012.32
2018-09-08T10:16:56.677Z,1012.32
2018-09-08T10:17:58.084Z,1012.25
2018-09-08T10:18:59.485Z,1012.31
2018-09-08T10:20:00.887Z,1012.24
2018-09-08T10:21:02.289Z,1012.30
2018-09-08T10:22:03.680Z,1012.29
2018-09-08T10:23:05.152Z,1012.26
2018-09-08T10:24:06.437Z,1012.27
2018-09-08T10:25:07.840Z,1012.27
2018-09-08T10:26:09.231Z,1012.26
2018-09-08T10:27:10.627Z,1012.23
2018-09-08T10:28:12.018Z,1012.25
2018-09-08T10:29:13.427Z,1012.30
2018-09-08T10:30:14.809Z,1012.34
2018-09-08T10:31:16.212Z,1012.27
2018-09-08T10:32:17.942Z,1012.32
2018-09-08T10:33:19.024Z,1012.27
2018-09-08T10:34:20.438Z,1012.31
2018-09-08T10:35:22.049Z,1012.37
2018-09-08T10:36:24.304Z,1012.36
2018-09-08T10:37:25.697Z,1012.37
2018-09-08T10:38:27.096Z,1012.37
2018-09-08T10:39:28.998Z,1012.32
2018-09-08T10:40:30.389Z,1012.31
2018-09-08T10:41:31.777Z,1012.32
2018-09-08T10:42:33.180Z,1012.32
2018-09-08T10:43:34.574Z,1012.29
2018-09-08T10:44:35.978Z,1012.38
2018-09-08T10:45:37.374Z,1012.33
2018-09-08T10:46:39.483Z,1012.35
2018-09-08T10:47:40.878Z,1012.33
2018-09-08T10:48:42.278Z,1012.36
2018-09-08T10:49:43.667Z,1012.37
2018-09-08T10:50:45.072Z,1012.37
2018-09-08T10:51:46.432Z,1012.38
2018-09-08T10:52:47.869Z,1012.40
2018-09-08T10:53:49.265Z,1012.35
2018-09-08T10:54:50.670Z,1012.40
2018-09-08T10:55:52.083Z,1012.29
2018-09-08T10:56:53.770Z,1012.36
2018-09-08T19:39:30.042Z,1013.53
2018-09-08T19:40:31.456Z,1013.51
2018-09-08T19:41:32.965Z,1013.51
2018-09-08T19:42:34.410Z,1013.51
2018-09-08T19:43:35.854Z,1013.48
2018-09-08T19:44:37.273Z,1013.50
2018-09-08T19:45:38.688Z,1013.46
2018-09-08T19:46:40.773Z,1013.46
2018-09-08T19:47:42.267Z,1013.45
2018-09-08T19:48:43.681Z,1013.45
2018-09-08T19:49:45.704Z,1013.48
2018-09-08T19:50:47.050Z,1013.48
2018-09-08T19:51:48.445Z,1013.47
2018-09-08T19:52:49.932Z,1013.47
2018-09-08T19:53:52.075Z,1013.46
2018-09-08T19:54:53.526Z,1013.48
2018-09-08T19:55:54.929Z,1013.48
2018-09-08T19:56:56.332Z,1013.50
2018-09-08T19:57:57.754Z,1013.49
2018-09-08T19:58:59.174Z,1013.52
2018-09-08T20:00:00.598Z,1013.55
2018-09-08T20:01:02.767Z,1013.58
2018-09-08T20:02:04.263Z,1013.62
2018-09-08T20:03:06.351Z,1013.59
2018-09-08T20:04:07.759Z,1013.62
2018-09-08T20:05:09.205Z,1013.58
2018-09-08T20:06:10.599Z,1013.60
2018-09-08T20:07:12.011Z,1013.57
2018-09-08T20:08:13.360Z,1013.61
2018-09-08T20:09:14.794Z,1013.57
2018-09-08T20:10:16.172Z,1013.61
2018-09-08T20:11:17.562Z,1013.59
2018-09-08T20:12:18.968Z,1013.62
2018-09-08T20:13:20.957Z,1013.58
2018-09-08T20:14:21.729Z,1013.58
2018-09-08T20:15:23.211Z,1013.58
2018-09-08T20:16:25.359Z,1013.60
2018-09-08T20:17:27.703Z,1013.61
2018-09-08T20:18:29.083Z,1013.59
2018-09-08T20:19:31.892Z,1013.59
2018-09-08T20:20:33.569Z,1013.61
2018-09-08T20:21:35.392Z,1013.59
2018-09-08T20:22:37.330Z,1013.57
2018-09-08T20:23:38.960Z,1013.60
2018-09-08T20:24:40.657Z,1013.60
2018-09-08T20:25:42.846Z,1013.60
2018-09-08T20:26:44.709Z,1013.61
2018-09-08T20:27:45.981Z,1013.58
2018-09-08T20:28:47.445Z,1013.62
2018-09-08T20:29:49.037Z,1013.58
2018-09-08T20:30:50.795Z,1013.58
2018-09-08T20:31:52.508Z,1013.56
2018-09-08T20:32:54.104Z,1013.61
2018-09-08T20:33:55.801Z,1013.60
2018-09-08T20:34:57.363Z,1013.61
2018-09-08T20:35:58.948Z,1013.61
2018-09-08T20:37:00.676Z,1013.63
2018-09-08T20:38:02.270Z,1013.60
2018-09-08T20:39:03.669Z,1013.62
2018-09-08T20:40:05.040Z,1013.61
2018-09-08T20:41:06.454Z,1013.60
2018-09-08T20:42:07.856Z,1013.63
2018-09-08T20:43:09.240Z,1013.61
2018-09-08T20:44:11.041Z,1013.68
2018-09-08T20:45:12.753Z,1013.64
2018-09-08T20:46:14.371Z,1013.64
2018-09-08T20:47:15.747Z,1013.67
2018-09-08T20:48:17.138Z,1013.66
2018-09-08T20:49:18.534Z,1013.67
2018-09-08T20:50:20.001Z,1013.68
2018-09-08T20:51:21.268Z,1013.70
2018-09-08T20:52:22.652Z,1013.67
2018-09-08T20:53:24.002Z,1013.69
2018-09-08T20:54:25.400Z,1013.70
2018-09-08T20:55:26.856Z,1013.70
2018-09-08T20:56:28.262Z,1013.69
2018-09-08T20:57:29.648Z,1013.70
2018-09-08T20:58:31.392Z,1013.70
2018-09-08T20:59:33.065Z,1013.69
2018-09-08T21:00:34.406Z,1013.65
2018-09-08T21:01:36.113Z,1013.64
2018-09-08T21:02:37.686Z,1013.65
2018-09-08T21:03:39.310Z,1013.65
2018-09-08T21:04:41.039Z,1013.67
2018-09-08T21:05:42.500Z,1013.68